createdAt,value
2019-04-22T00:01:17.100Z,15.10
2019-04-22T00:03:52.490Z,17.80
2019-04-22T00:06:30.734Z,19.03
2019-04-22T00:09:24.167Z,16.67
2019-04-22T00:11:54.585Z,15.13
2019-04-22T00:14:17.910Z,12.90
2019-04-22T00:17:00.644Z,13.27
2019-04-22T00:19:33.537Z,14.87
2019-04-22T00:22:02.525Z,12.47
2019-04-22T00:24:27.200Z,12.37
2019-04-22T00:26:57.129Z,11.27
2019-04-22T00:29:57.409Z,14.33
2019-04-22T00:32:12.752Z,16.27
2019-04-22T00:34:52.079Z,14.27
2019-04-22T00:37:25.232Z,13.13
2019-04-22T00:39:52.123Z,16.10
2019-04-22T00:42:22.627Z,15.40
2019-04-22T00:45:03.240Z,14.60
2019-04-22T00:47:27.985Z,12.70
2019-04-22T00:52:28.201Z,18.33
2019-04-22T00:55:06.093Z,14.37
2019-04-22T00:57:35.812Z,15.47
2019-04-22T01:00:07.230Z,13.40
2019-04-22T01:02:34.757Z,11.73
2019-04-22T01:05:07.930Z,13.67
2019-04-22T01:07:38.848Z,14.40
2019-04-22T01:10:12.931Z,12.77
2019-04-22T01:12:39.508Z,16.30
2019-04-22T01:15:09.233Z,15.97
2019-04-22T01:17:40.179Z,11.60
2019-04-22T01:20:27.209Z,13.33
2019-04-22T01:22:38.139Z,12.87
2019-04-22T01:25:12.943Z,12.93
2019-04-22T01:27:39.237Z,16.07
2019-04-22T01:30:07.170Z,14.53
2019-04-22T01:32:33.719Z,13.67
2019-04-22T01:35:08.448Z,14.50
2019-04-22T01:37:45.652Z,14.83
2019-04-22T01:40:23.852Z,14.47
2019-04-22T01:45:26.189Z,15.67
2019-04-22T01:47:57.790Z,15.53
2019-04-22T01:53:08.519Z,19.67
2019-04-22T01:55:33.774Z,14.43
2019-04-22T01:57:59.661Z,13.67
2019-04-22T02:00:35.958Z,14.17
2019-04-22T02:03:08.694Z,14.97
2019-04-22T02:05:37.614Z,14.60
2019-04-22T02:08:16.590Z,14.03
2019-04-22T02:10:39.241Z,15.77
2019-04-22T02:13:15.453Z,15.60
2019-04-22T02:15:48.034Z,17.30
2019-04-22T02:18:21.147Z,13.30
2019-04-22T02:20:43.229Z,13.37
2019-04-22T02:23:45.806Z,15.17
2019-04-22T02:26:07.579Z,14.63
2019-04-22T02:28:36.636Z,13.23
2019-04-22T02:34:01.236Z,14.73
2019-04-22T02:36:27.871Z,13.73
2019-04-22T02:39:00.120Z,15.80
2019-04-22T02:41:22.770Z,18.93
2019-04-22T02:59:12.364Z,17.43
2019-04-22T03:04:04.370Z,17.60
2019-04-22T03:06:30.905Z,13.83
2019-04-22T03:09:03.889Z,16.03
2019-04-22T03:11:45.403Z,16.50
2019-04-22T03:14:01.311Z,18.17
2019-04-22T03:16:34.875Z,17.33
2019-04-22T03:19:17.745Z,15.27
2019-04-22T03:21:31.209Z,16.10
2019-04-22T03:26:39.025Z,14.97
2019-04-22T03:29:19.645Z,15.63
2019-04-22T03:39:45.637Z,13.97
2019-04-22T03:49:48.013Z,15.20
2019-04-22T03:52:10.900Z,15.73
2019-04-22T03:54:54.469Z,15.70
2019-04-22T03:57:33.769Z,15.37
2019-04-22T03:59:41.523Z,15.40
2019-04-22T04:02:21.346Z,17.30
2019-04-22T04:04:36.049Z,16.80
2019-04-22T04:07:22.458Z,14.50
2019-04-22T04:12:13.898Z,17.17
2019-04-22T04:17:20.611Z,15.40
2019-04-22T04:22:33.860Z,13.97
2019-04-22T04:30:14.386Z,15.40
2019-04-22T04:32:38.726Z,14.73
2019-04-22T04:37:40.691Z,17.53
2019-04-22T04:47:43.775Z,17.60
2019-04-22T04:55:18.085Z,16.17
2019-04-22T04:57:43.579Z,15.23
2019-04-22T05:05:12.128Z,15.00
2019-04-22T05:07:45.776Z,16.00
2019-04-22T05:17:47.338Z,17.13
2019-04-22T05:20:24.247Z,18.33
2019-04-22T05:27:45.440Z,21.37
2019-04-22T05:35:32.447Z,17.77
2019-04-22T05:37:50.645Z,16.70
2019-04-22T05:40:26.278Z,16.33
2019-04-22T05:42:49.685Z,12.50
2019-04-22T05:45:25.404Z,15.10
2019-04-22T05:47:57.896Z,13.30
2019-04-22T05:50:44.205Z,19.00
2019-04-22T05:52:57.378Z,14.23
2019-04-22T05:55:34.372Z,12.57
2019-04-22T06:03:06.803Z,11.90
2019-04-22T06:05:35.926Z,14.37
2019-04-22T06:08:03.712Z,11.53
2019-04-22T06:13:06.876Z,10.43
2019-04-22T06:15:37.295Z,16.73
2019-04-22T06:18:25.527Z,15.77
2019-04-22T06:20:57.502Z,13.73
2019-04-22T06:26:07.857Z,15.33
2019-04-22T06:28:38.346Z,12.47
2019-04-22T06:30:57.544Z,13.87
2019-04-22T06:33:31.641Z,10.07
2019-04-22T06:36:02.004Z,11.73
2019-04-22T06:38:36.149Z,12.43
2019-04-22T06:41:05.785Z,10.97
2019-04-22T06:43:33.803Z,11.70
2019-04-22T06:46:04.228Z,10.97
2019-04-22T06:48:33.244Z,15.00
2019-04-22T06:51:00.387Z,15.40
2019-04-22T06:53:29.839Z,9.07
2019-04-22T06:56:04.527Z,11.93
2019-04-22T06:58:36.582Z,11.93
2019-04-22T07:01:09.239Z,12.40
2019-04-22T07:03:53.182Z,10.10
2019-04-22T07:06:17.530Z,10.43
2019-04-22T07:09:06.030Z,11.80
2019-04-22T07:11:06.380Z,11.60
2019-04-22T07:13:50.309Z,10.77
2019-04-22T07:16:18.702Z,10.00
2019-04-22T07:19:01.903Z,11.40
2019-04-22T07:21:12.430Z,11.47
2019-04-22T07:23:51.250Z,11.73
2019-04-22T07:26:29.134Z,14.30
2019-04-22T07:28:49.155Z,11.40
2019-04-22T07:31:20.912Z,10.67
2019-04-22T07:33:51.948Z,12.13
2019-04-22T07:36:48.725Z,10.47
2019-04-22T07:38:56.573Z,10.63
2019-04-22T07:41:28.831Z,7.63
2019-04-22T07:46:51.632Z,9.30
2019-04-22T07:48:57.411Z,9.27
2019-04-22T07:51:32.824Z,9.77
2019-04-22T07:54:01.806Z,11.83
2019-04-22T07:56:51.843Z,8.13
2019-04-22T07:59:05.732Z,12.17
2019-04-22T08:01:30.946Z,6.37
2019-04-22T08:04:16.158Z,11.87
2019-04-22T08:06:43.630Z,7.00
2019-04-22T08:09:13.917Z,7.93
2019-04-22T08:11:51.359Z,11.70
2019-04-22T08:14:18.865Z,8.13
2019-04-22T08:16:43.842Z,9.17
2019-04-22T08:19:15.510Z,6.27
2019-04-22T08:21:49.426Z,8.10
2019-04-22T08:24:20.555Z,7.33
2019-04-22T08:26:46.768Z,7.13
2019-04-22T08:29:19.133Z,8.17
2019-04-22T08:31:58.092Z,6.50
2019-04-22T08:34:19.551Z,6.50
2019-04-22T08:37:16.732Z,8.03
2019-04-22T08:41:43.564Z,5.83
2019-04-22T08:44:40.197Z,4.33
2019-04-22T08:47:04.641Z,9.00
2019-04-22T08:49:39.507Z,7.83
2019-04-22T08:52:01.327Z,9.13
2019-04-22T08:54:29.756Z,7.63
2019-04-22T08:57:06.705Z,8.23
2019-04-22T08:59:33.639Z,5.73
2019-04-22T09:02:06.308Z,9.17
2019-04-22T09:04:30.895Z,7.67
2019-04-22T09:09:38.105Z,6.87
2019-04-22T09:12:07.893Z,6.33
2019-04-22T09:14:42.168Z,7.50
2019-04-22T09:17:13.399Z,5.70
2019-04-22T09:19:40.496Z,7.57
2019-04-22T09:22:13.538Z,8.53
2019-04-22T09:24:40.812Z,6.93
2019-04-22T09:27:33.227Z,8.00
2019-04-22T09:29:42.981Z,7.50
2019-04-22T09:32:24.873Z,10.27
2019-04-22T09:34:47.018Z,9.53
2019-04-22T09:42:24.769Z,8.43
2019-04-22T09:45:05.719Z,6.13
2019-04-22T09:47:29.924Z,6.90
2019-04-22T09:50:08.204Z,6.50
2019-04-22T09:52:20.547Z,7.23
2019-04-22T09:54:59.675Z,6.03
2019-04-22T09:57:24.481Z,10.17
2019-04-22T10:00:02.246Z,9.83
2019-04-22T10:02:37.049Z,6.33
2019-04-22T10:07:31.862Z,6.97
2019-04-22T10:10:09.058Z,6.40
2019-04-22T10:12:37.088Z,7.00
2019-04-22T10:15:05.813Z,6.07
2019-04-22T10:17:37.719Z,6.30
2019-04-22T10:20:07.140Z,13.83
2019-04-22T10:22:46.417Z,5.83
2019-04-22T10:25:14.520Z,5.73
2019-04-22T10:27:39.839Z,8.57
2019-04-22T10:30:11.319Z,9.53
2019-04-22T10:32:46.288Z,7.37
2019-04-22T10:35:12.303Z,7.73
2019-04-22T10:37:38.636Z,7.33
2019-04-22T10:40:11.608Z,5.70
2019-04-22T10:42:43.190Z,7.20
2019-04-22T10:45:14.493Z,8.47
2019-04-22T10:47:43.983Z,8.97
2019-04-22T10:50:14.435Z,7.40
2019-04-22T10:52:45.480Z,6.30
2019-04-22T10:55:14.951Z,7.03
2019-04-22T10:57:44.452Z,8.77
2019-04-22T11:00:15.449Z,8.40
2019-04-22T11:02:45.746Z,8.37
2019-04-22T11:05:16.721Z,7.07
2019-04-22T11:07:51.950Z,8.00
2019-04-22T11:10:34.906Z,7.60
2019-04-22T11:12:49.310Z,11.20
2019-04-22T11:15:18.992Z,6.13
2019-04-22T11:17:49.513Z,6.23
2019-04-22T11:20:19.882Z,8.77
2019-04-22T11:22:50.943Z,10.37
2019-04-22T11:25:21.624Z,7.37
2019-04-22T11:27:51.441Z,10.63
2019-04-22T11:30:24.297Z,6.53
2019-04-22T11:32:56.266Z,9.27
2019-04-22T11:35:25.811Z,7.73
2019-04-22T11:37:55.276Z,5.73
2019-04-22T11:40:33.736Z,5.57
2019-04-22T11:42:56.503Z,8.97
2019-04-22T11:45:27.088Z,6.43
2019-04-22T11:47:57.272Z,10.30
2019-04-22T11:50:28.381Z,5.80
2019-04-22T11:52:58.599Z,6.87
2019-04-22T11:55:28.877Z,5.80
2019-04-22T11:57:58.882Z,5.80
2019-04-22T12:00:32.834Z,6.37
2019-04-22T12:03:03.191Z,7.73
2019-04-22T12:05:34.207Z,6.30
2019-04-22T12:08:04.965Z,7.70
2019-04-22T12:10:43.021Z,6.40
2019-04-22T12:13:06.279Z,7.63
2019-04-22T12:15:37.138Z,7.23
2019-04-22T12:18:09.171Z,7.40
2019-04-22T12:20:39.158Z,6.57
2019-04-22T12:23:09.417Z,6.87
2019-04-22T12:25:46.171Z,4.60
2019-04-22T12:28:11.123Z,5.83
2019-04-22T12:30:41.725Z,4.43
2019-04-22T12:33:14.544Z,7.33
2019-04-22T12:35:42.366Z,9.13
2019-04-22T12:38:13.150Z,5.10
2019-04-22T12:40:52.289Z,8.43
2019-04-22T12:43:16.198Z,6.10
2019-04-22T12:45:44.862Z,7.07
2019-04-22T12:48:15.086Z,6.87
2019-04-22T12:50:47.998Z,7.20
2019-04-22T12:53:18.775Z,5.97
2019-04-22T12:55:48.107Z,4.77
2019-04-22T12:58:18.173Z,4.93
2019-04-22T13:00:48.454Z,6.10
2019-04-22T13:03:18.348Z,5.57
2019-04-22T13:05:49.330Z,7.87
2019-04-22T13:08:19.863Z,4.70
2019-04-22T13:10:57.467Z,4.10
2019-04-22T13:13:20.829Z,6.03
2019-04-22T13:15:52.989Z,7.70
2019-04-22T13:18:31.703Z,9.00
2019-04-22T13:20:54.735Z,7.50
2019-04-22T13:23:25.568Z,7.10
2019-04-22T13:25:56.704Z,5.20
2019-04-22T13:28:27.222Z,5.27
2019-04-22T13:30:58.514Z,8.07
2019-04-22T13:33:28.714Z,7.43
2019-04-22T13:35:59.604Z,6.43
2019-04-22T13:38:31.064Z,4.67
2019-04-22T13:41:16.435Z,6.27
2019-04-22T13:43:32.275Z,7.53
2019-04-22T13:46:01.953Z,6.83
2019-04-22T13:48:53.370Z,11.47
2019-04-22T13:51:33.164Z,5.97
2019-04-22T13:54:46.889Z,5.60
2019-04-22T13:56:23.801Z,4.93
2019-04-22T13:58:48.416Z,8.13
2019-04-22T14:01:12.679Z,6.10
2019-04-22T14:04:00.757Z,8.27
2019-04-22T14:06:31.114Z,7.10
2019-04-22T14:09:01.138Z,6.37
2019-04-22T14:11:39.043Z,4.40
2019-04-22T14:14:02.759Z,5.93
2019-04-22T14:16:33.121Z,7.10
2019-04-22T14:19:02.919Z,7.30
2019-04-22T14:21:32.650Z,8.30
2019-04-22T14:24:02.691Z,8.47
2019-04-22T14:26:44.072Z,6.40
2019-04-22T14:29:04.107Z,5.73
2019-04-22T14:31:33.469Z,8.43
2019-04-22T14:34:05.262Z,9.70
2019-04-22T14:36:35.144Z,7.63
2019-04-22T14:39:08.106Z,6.20
2019-04-22T14:41:55.301Z,5.57
2019-04-22T14:45:15.234Z,6.30
2019-04-22T14:47:11.621Z,7.57
2019-04-22T14:49:37.148Z,7.83
2019-04-22T14:52:03.563Z,4.17
2019-04-22T14:54:28.074Z,6.60
2019-04-22T14:56:44.555Z,6.03
2019-04-22T14:59:14.007Z,7.37
2019-04-22T15:01:43.601Z,6.13
2019-04-22T15:04:13.390Z,7.27
2019-04-22T15:06:46.094Z,7.27
2019-04-22T15:09:14.419Z,7.63
2019-04-22T15:11:56.813Z,5.40
2019-04-22T15:14:15.363Z,5.63
2019-04-22T15:17:10.919Z,4.03
2019-04-22T15:20:03.485Z,7.87
2019-04-22T15:22:34.582Z,5.77
2019-04-22T15:25:04.961Z,6.77
2019-04-22T15:27:35.285Z,8.93
2019-04-22T15:30:05.728Z,6.07
2019-04-22T15:32:35.720Z,8.30
2019-04-22T15:35:07.107Z,6.07
2019-04-22T15:37:37.248Z,6.77
2019-04-22T15:40:06.972Z,7.97
2019-04-22T15:42:40.209Z,4.97
2019-04-22T15:45:08.797Z,4.83
2019-04-22T15:47:39.638Z,6.07
2019-04-22T15:50:10.086Z,4.47
2019-04-22T15:52:46.036Z,9.17
2019-04-22T15:55:11.085Z,10.50
2019-04-22T15:57:41.953Z,8.23
2019-04-22T16:00:25.155Z,7.47
2019-04-22T16:02:43.802Z,5.33
2019-04-22T16:05:14.801Z,7.20
2019-04-22T16:07:45.840Z,9.23
2019-04-22T16:10:15.732Z,7.80
2019-04-22T16:12:56.026Z,8.03
2019-04-22T16:15:18.319Z,5.63
2019-04-22T16:17:48.849Z,8.67
2019-04-22T16:20:19.271Z,7.57
2019-04-22T16:23:07.796Z,6.83
2019-04-22T16:25:56.671Z,14.97
2019-04-22T16:28:27.008Z,6.73
2019-04-22T16:30:57.648Z,4.83
2019-04-22T16:33:27.754Z,5.47
2019-04-22T16:35:58.558Z,6.93
2019-04-22T16:38:28.969Z,4.67
2019-04-22T16:40:58.879Z,6.77
2019-04-22T16:43:28.978Z,4.37
2019-04-22T16:45:58.281Z,8.30
2019-04-22T16:48:29.306Z,5.70
2019-04-22T16:51:00.147Z,5.60
2019-04-22T16:53:29.574Z,6.70
2019-04-22T16:55:59.209Z,6.10
2019-04-22T16:58:28.699Z,7.23
2019-04-22T17:00:58.769Z,6.90
2019-04-22T17:03:54.372Z,4.87
2019-04-22T17:06:35.562Z,4.57
2019-04-22T17:09:07.123Z,8.23
2019-04-22T17:11:38.029Z,7.43
2019-04-22T17:14:07.820Z,9.50
2019-04-22T17:16:38.620Z,4.57
2019-04-22T17:19:09.004Z,4.23
2019-04-22T17:21:39.611Z,5.50
2019-04-22T17:24:09.817Z,8.17
2019-04-22T17:26:39.309Z,4.50
2019-04-22T17:29:10.250Z,7.20
2019-04-22T17:31:40.871Z,6.30
2019-04-22T17:34:11.588Z,10.90
2019-04-22T17:36:42.287Z,5.37
2019-04-22T17:39:27.266Z,6.00
2019-04-22T17:42:02.007Z,9.73
2019-04-22T17:44:43.950Z,6.93
2019-04-22T17:47:31.765Z,8.47
2019-04-22T17:50:11.543Z,11.33
2019-04-22T17:52:42.678Z,5.73
2019-04-22T17:55:12.747Z,7.60
2019-04-22T17:57:39.130Z,8.03
2019-04-22T18:00:11.217Z,4.90
2019-04-22T18:02:39.701Z,7.03
2019-04-22T18:05:02.049Z,5.90
2019-04-22T18:07:52.157Z,4.73
2019-04-22T18:13:14.050Z,3.60
2019-04-22T18:15:19.388Z,3.40
2019-04-22T18:17:58.857Z,4.57
2019-04-22T18:20:17.474Z,3.27
2019-04-22T18:22:49.361Z,5.67
2019-04-22T18:25:20.345Z,6.20
2019-04-22T18:27:58.712Z,5.40
2019-04-22T18:30:20.368Z,3.67
2019-04-22T18:32:58.600Z,5.07
2019-04-22T18:35:29.806Z,3.93
2019-04-22T18:37:59.920Z,5.23
2019-04-22T18:40:30.786Z,4.03
2019-04-22T18:43:06.294Z,3.20
2019-04-22T18:47:59.856Z,5.43
2019-04-22T18:50:52.923Z,4.77
2019-04-22T18:53:44.937Z,6.40
2019-04-22T18:56:19.110Z,5.50
2019-04-22T18:58:42.049Z,6.90
2019-04-22T19:00:59.672Z,4.80
2019-04-22T19:03:32.150Z,6.63
2019-04-22T19:06:31.898Z,7.50
2019-04-22T19:08:55.450Z,8.17
2019-04-22T19:11:24.273Z,4.77
2019-04-22T19:14:03.273Z,5.20
2019-04-22T19:16:39.903Z,5.00
2019-04-22T19:19:22.529Z,8.53
2019-04-22T19:21:26.542Z,4.37
2019-04-22T19:24:00.333Z,3.23
2019-04-22T19:26:44.369Z,5.43
2019-04-22T19:29:00.310Z,2.97
2019-04-22T19:31:32.917Z,9.53
2019-04-22T19:34:03.236Z,3.00
2019-04-22T19:36:43.581Z,2.93
2019-04-22T19:39:07.978Z,5.43
2019-04-22T19:41:56.645Z,4.83
2019-04-22T19:44:10.302Z,6.60
2019-04-22T19:46:43.460Z,5.50
2019-04-22T19:49:19.790Z,3.30
2019-04-22T19:51:53.684Z,4.90
2019-04-22T19:54:15.385Z,3.27
2019-04-22T19:56:38.298Z,8.23
2019-04-22T19:59:11.762Z,4.13
2019-04-22T20:01:52.555Z,3.27
2019-04-22T20:04:59.697Z,6.03
2019-04-22T20:07:20.172Z,5.40
2019-04-22T20:09:57.632Z,6.67
2019-04-22T20:12:27.869Z,6.47
2019-04-22T20:15:02.332Z,6.43
2019-04-22T20:17:40.075Z,5.70
2019-04-22T20:20:08.437Z,5.70
2019-04-22T20:22:33.091Z,6.43
2019-04-22T20:24:54.232Z,4.43
2019-04-22T20:27:38.800Z,5.03
2019-04-22T20:30:05.037Z,6.57
2019-04-22T20:32:37.651Z,5.67
2019-04-22T20:35:19.688Z,6.70
2019-04-22T20:37:45.471Z,7.13
2019-04-22T20:40:10.353Z,5.17
2019-04-22T20:42:48.916Z,6.43
2019-04-22T20:45:14.939Z,8.77
2019-04-22T20:47:40.290Z,4.07
2019-04-22T20:50:20.981Z,5.30
2019-04-22T20:52:54.162Z,4.47
2019-04-22T20:55:13.658Z,3.80
2019-04-22T20:58:00.828Z,5.43
2019-04-22T21:00:15.180Z,10.03
2019-04-22T21:02:45.485Z,7.53
2019-04-22T21:05:18.322Z,4.50
2019-04-22T21:08:01.460Z,3.97
2019-04-22T21:10:19.581Z,7.47
2019-04-22T21:12:59.059Z,2.50
2019-04-22T21:15:37.194Z,3.30
2019-04-22T21:17:59.809Z,6.00
2019-04-22T21:20:36.777Z,5.37
2019-04-22T21:23:05.650Z,5.83
2019-04-22T21:25:26.302Z,7.13
2019-04-22T21:28:09.714Z,2.70
2019-04-22T21:30:40.340Z,5.90
2019-04-22T21:33:06.698Z,6.27
2019-04-22T21:35:53.715Z,4.33
2019-04-22T21:38:15.177Z,4.57
2019-04-22T21:40:41.079Z,9.70
2019-04-22T21:43:21.432Z,10.97
2019-04-22T21:45:43.706Z,5.17
2019-04-22T21:48:27.977Z,4.97
2019-04-22T21:50:58.141Z,9.00
2019-04-22T21:53:29.324Z,1.90
2019-04-22T21:56:00.045Z,2.80
2019-04-22T21:58:34.109Z,6.27
2019-04-22T22:01:29.520Z,7.07
2019-04-22T22:03:57.015Z,3.97
2019-04-22T22:06:14.145Z,3.33
2019-04-22T22:08:59.705Z,7.93
2019-04-22T22:11:24.462Z,3.20
2019-04-22T22:13:55.154Z,3.73
2019-04-22T22:16:18.798Z,6.93
2019-04-22T22:19:04.297Z,7.80
2019-04-22T22:24:04.226Z,2.07
2019-04-22T22:26:35.210Z,2.87
2019-04-22T22:29:05.037Z,2.43
2019-04-22T22:31:40.091Z,3.67
2019-04-22T22:34:10.836Z,4.43
2019-04-22T22:36:31.304Z,7.20
2019-04-22T22:39:00.704Z,3.00
2019-04-22T22:41:16.808Z,5.87
2019-04-22T22:43:50.974Z,3.27
2019-04-22T22:46:29.292Z,8.83
2019-04-22T22:49:10.080Z,4.30
2019-04-22T22:51:45.351Z,5.63
2019-04-22T22:54:18.471Z,6.03
2019-04-22T22:56:57.626Z,3.13
2019-04-22T22:59:18.229Z,5.70
2019-04-22T23:01:46.908Z,4.13
2019-04-22T23:04:23.800Z,3.07
2019-04-22T23:06:53.336Z,5.77
2019-04-22T23:09:22.473Z,2.23
2019-04-22T23:14:23.267Z,6.70
2019-04-22T23:16:41.891Z,3.67
2019-04-22T23:19:06.688Z,5.87
2019-04-22T23:21:41.504Z,8.10
2019-04-22T23:24:28.168Z,6.80
2019-04-22T23:27:16.014Z,2.47
2019-04-22T23:29:46.431Z,4.47
2019-04-22T23:32:22.747Z,2.67
2019-04-22T23:35:08.342Z,5.37
2019-04-22T23:37:39.604Z,3.47
2019-04-22T23:40:16.190Z,2.47
2019-04-22T23:42:44.464Z,6.50
2019-04-22T23:45:19.152Z,4.53
2019-04-22T23:47:35.527Z,5.33
2019-04-22T23:50:14.251Z,3.60
2019-04-22T23:52:56.734Z,2.90
2019-04-22T23:55:29.817Z,2.60
2019-04-22T23:57:59.802Z,6.50
